sensor_id;sensor_type;location;lat;lon;timestamp;P1;durP1;ratioP1;P2;durP2;ratioP2
77322;SDS011;66384;51.052;9.850;2023-03-14T00:01:26;3.00;;;1.80;;
77322;SDS011;66384;51.052;9.850;2023-03-14T00:03:55;2.70;;;1.80;;
77322;SDS011;66384;51.052;9.850;2023-03-14T00:06:25;2.50;;;1.80;;
77322;SDS011;66384;51.052;9.850;2023-03-14T00:08:55;2.10;;;1.20;;
77322;SDS011;66384;51.052;9.850;2023-03-14T00:11:24;2.30;;;1.00;;
77322;SDS011;66384;51.052;9.850;2023-03-14T00:13:53;2.10;;;1.20;;
77322;SDS011;66384;51.052;9.850;2023-03-14T00:16:22;1.00;;;0.80;;
77322;SDS011;66384;51.052;9.850;2023-03-14T00:18:52;1.40;;;1.00;;
77322;SDS011;66384;51.052;9.850;2023-03-14T00:21:21;1.00;;;0.80;;
77322;SDS011;66384;51.052;9.850;2023-03-14T00:23:50;1.50;;;0.80;;
77322;SDS011;66384;51.052;9.850;2023-03-14T00:26:20;1.20;;;0.70;;
77322;SDS011;66384;51.052;9.850;2023-03-14T00:28:52;0.80;;;0.80;;
77322;SDS011;66384;51.052;9.850;2023-03-14T00:31:22;2.30;;;0.90;;
77322;SDS011;66384;51.052;9.850;2023-03-14T00:33:52;0.90;;;0.70;;
77322;SDS011;66384;51.052;9.850;2023-03-14T00:36:22;1.80;;;1.10;;
77322;SDS011;66384;51.052;9.850;2023-03-14T00:38:51;1.20;;;0.80;;
77322;SDS011;66384;51.052;9.850;2023-03-14T00:41:21;1.50;;;0.80;;
77322;SDS011;66384;51.052;9.850;2023-03-14T00:43:51;1.20;;;1.00;;
77322;SDS011;66384;51.052;9.850;2023-03-14T00:46:20;1.40;;;1.00;;
77322;SDS011;66384;51.052;9.850;2023-03-14T00:48:49;1.00;;;0.90;;
77322;SDS011;66384;51.052;9.850;2023-03-14T00:51:18;1.30;;;0.90;;
77322;SDS011;66384;51.052;9.850;2023-03-14T00:53:48;2.60;;;1.30;;
77322;SDS011;66384;51.052;9.850;2023-03-14T00:56:17;1.30;;;1.10;;
77322;SDS011;66384;51.052;9.850;2023-03-14T00:58:46;1.30;;;1.00;;
77322;SDS011;66384;51.052;9.850;2023-03-14T01:01:16;1.20;;;0.80;;
77322;SDS011;66384;51.052;9.850;2023-03-14T01:03:46;1.40;;;1.00;;
77322;SDS011;66384;51.052;9.850;2023-03-14T01:06:19;1.20;;;1.10;;
77322;SDS011;66384;51.052;9.850;2023-03-14T01:08:49;1.00;;;0.90;;
77322;SDS011;66384;51.052;9.850;2023-03-14T01:11:20;1.40;;;1.30;;
77322;SDS011;66384;51.052;9.850;2023-03-14T01:13:51;1.10;;;1.00;;
77322;SDS011;66384;51.052;9.850;2023-03-14T01:16:22;0.90;;;0.80;;
77322;SDS011;66384;51.052;9.850;2023-03-14T01:18:53;0.80;;;0.70;;
77322;SDS011;66384;51.052;9.850;2023-03-14T01:21:23;1.30;;;0.70;;
77322;SDS011;66384;51.052;9.850;2023-03-14T01:23:55;1.10;;;1.00;;
77322;SDS011;66384;51.052;9.850;2023-03-14T01:26:26;1.10;;;0.90;;
77322;SDS011;66384;51.052;9.850;2023-03-14T01:28:57;1.20;;;1.10;;
77322;SDS011;66384;51.052;9.850;2023-03-14T01:31:27;1.30;;;1.10;;
77322;SDS011;66384;51.052;9.850;2023-03-14T01:33:57;2.30;;;1.30;;
77322;SDS011;66384;51.052;9.850;2023-03-14T01:36:26;2.50;;;1.60;;
77322;SDS011;66384;51.052;9.850;2023-03-14T01:38:55;1.70;;;1.20;;
77322;SDS011;66384;51.052;9.850;2023-03-14T01:41:25;1.50;;;0.90;;
77322;SDS011;66384;51.052;9.850;2023-03-14T01:43:55;1.80;;;1.00;;
77322;SDS011;66384;51.052;9.850;2023-03-14T01:46:29;2.10;;;1.20;;
77322;SDS011;66384;51.052;9.850;2023-03-14T01:49:09;1.70;;;1.10;;
77322;SDS011;66384;51.052;9.850;2023-03-14T01:51:44;1.60;;;1.10;;
77322;SDS011;66384;51.052;9.850;2023-03-14T01:54:18;1.70;;;1.40;;
77322;SDS011;66384;51.052;9.850;2023-03-14T01:56:53;2.30;;;1.20;;
77322;SDS011;66384;51.052;9.850;2023-03-14T01:59:25;4.90;;;1.40;;
77322;SDS011;66384;51.052;9.850;2023-03-14T02:01:56;4.00;;;1.40;;
77322;SDS011;66384;51.052;9.850;2023-03-14T02:04:26;2.00;;;1.10;;
77322;SDS011;66384;51.052;9.850;2023-03-14T02:07:00;4.90;;;1.50;;
77322;SDS011;66384;51.052;9.850;2023-03-14T02:09:35;3.20;;;1.60;;
77322;SDS011;66384;51.052;9.850;2023-03-14T02:12:05;2.00;;;1.70;;
77322;SDS011;66384;51.052;9.850;2023-03-14T02:14:39;2.50;;;1.50;;
77322;SDS011;66384;51.052;9.850;2023-03-14T02:17:08;3.10;;;1.40;;
77322;SDS011;66384;51.052;9.850;2023-03-14T02:19:43;4.00;;;1.70;;
77322;SDS011;66384;51.052;9.850;2023-03-14T02:22:21;1.80;;;1.20;;
77322;SDS011;66384;51.052;9.850;2023-03-14T02:24:53;2.40;;;1.40;;
77322;SDS011;66384;51.052;9.850;2023-03-14T02:27:30;3.30;;;1.20;;
77322;SDS011;66384;51.052;9.850;2023-03-14T02:30:01;2.50;;;1.70;;
77322;SDS011;66384;51.052;9.850;2023-03-14T02:32:33;3.30;;;1.40;;
77322;SDS011;66384;51.052;9.850;2023-03-14T02:35:06;2.20;;;1.00;;
77322;SDS011;66384;51.052;9.850;2023-03-14T02:37:41;2.90;;;1.20;;
77322;SDS011;66384;51.052;9.850;2023-03-14T02:40:13;3.10;;;1.10;;
77322;SDS011;66384;51.052;9.850;2023-03-14T02:42:42;2.50;;;1.40;;
77322;SDS011;66384;51.052;9.850;2023-03-14T02:48:16;2.20;;;1.30;;
77322;SDS011;66384;51.052;9.850;2023-03-14T02:50:49;1.70;;;1.20;;
77322;SDS011;66384;51.052;9.850;2023-03-14T02:53:21;3.40;;;1.60;;
77322;SDS011;66384;51.052;9.850;2023-03-14T02:55:53;4.10;;;1.50;;
77322;SDS011;66384;51.052;9.850;2023-03-14T02:58:23;2.90;;;1.00;;
77322;SDS011;66384;51.052;9.850;2023-03-14T03:00:53;2.40;;;1.30;;
77322;SDS011;66384;51.052;9.850;2023-03-14T03:03:22;1.00;;;0.90;;
77322;SDS011;66384;51.052;9.850;2023-03-14T03:05:52;1.30;;;0.80;;
77322;SDS011;66384;51.052;9.850;2023-03-14T03:08:24;3.80;;;1.30;;
77322;SDS011;66384;51.052;9.850;2023-03-14T03:10:54;2.70;;;1.60;;
77322;SDS011;66384;51.052;9.850;2023-03-14T03:13:24;2.60;;;1.20;;
77322;SDS011;66384;51.052;9.850;2023-03-14T03:15:53;2.50;;;1.50;;
77322;SDS011;66384;51.052;9.850;2023-03-14T03:18:22;2.70;;;1.50;;
77322;SDS011;66384;51.052;9.850;2023-03-14T03:20:52;3.20;;;1.30;;
77322;SDS011;66384;51.052;9.850;2023-03-14T03:23:21;4.50;;;1.40;;
77322;SDS011;66384;51.052;9.850;2023-03-14T03:25:51;2.20;;;1.40;;
77322;SDS011;66384;51.052;9.850;2023-03-14T03:28:20;2.40;;;1.90;;
77322;SDS011;66384;51.052;9.850;2023-03-14T03:30:49;1.20;;;1.10;;
77322;SDS011;66384;51.052;9.850;2023-03-14T03:33:19;3.80;;;1.30;;
77322;SDS011;66384;51.052;9.850;2023-03-14T03:35:49;2.90;;;1.50;;
77322;SDS011;66384;51.052;9.850;2023-03-14T03:38:18;4.10;;;1.50;;
77322;SDS011;66384;51.052;9.850;2023-03-14T03:40:48;3.90;;;1.50;;
77322;SDS011;66384;51.052;9.850;2023-03-14T03:43:17;1.60;;;1.00;;
77322;SDS011;66384;51.052;9.850;2023-03-14T03:45:46;3.40;;;1.10;;
77322;SDS011;66384;51.052;9.850;2023-03-14T03:48:16;2.50;;;1.40;;
77322;SDS011;66384;51.052;9.850;2023-03-14T03:50:46;3.50;;;1.20;;
77322;SDS011;66384;51.052;9.850;2023-03-14T03:53:15;5.20;;;1.40;;
77322;SDS011;66384;51.052;9.850;2023-03-14T03:55:45;2.80;;;1.20;;
77322;SDS011;66384;51.052;9.850;2023-03-14T03:58:14;2.20;;;1.20;;
77322;SDS011;66384;51.052;9.850;2023-03-14T04:00:43;2.50;;;1.20;;
77322;SDS011;66384;51.052;9.850;2023-03-14T04:03:12;2.30;;;1.10;;
77322;SDS011;66384;51.052;9.850;2023-03-14T04:05:42;2.90;;;0.90;;
77322;SDS011;66384;51.052;9.850;2023-03-14T04:08:11;4.30;;;1.60;;
77322;SDS011;66384;51.052;9.850;2023-03-14T04:10:40;3.70;;;1.30;;
77322;SDS011;66384;51.052;9.850;2023-03-14T04:13:09;1.60;;;1.00;;
77322;SDS011;66384;51.052;9.850;2023-03-14T04:15:39;3.50;;;1.20;;
77322;SDS011;66384;51.052;9.850;2023-03-14T04:18:08;1.50;;;1.10;;
77322;SDS011;66384;51.052;9.850;2023-03-14T04:20:37;2.30;;;1.10;;
77322;SDS011;66384;51.052;9.850;2023-03-14T04:23:06;1.50;;;1.10;;
77322;SDS011;66384;51.052;9.850;2023-03-14T04:25:35;2.50;;;1.30;;
77322;SDS011;66384;51.052;9.850;2023-03-14T04:28:05;2.60;;;1.10;;
77322;SDS011;66384;51.052;9.850;2023-03-14T04:30:34;1.60;;;0.90;;
77322;SDS011;66384;51.052;9.850;2023-03-14T04:33:03;3.10;;;1.20;;
77322;SDS011;66384;51.052;9.850;2023-03-14T04:35:33;1.90;;;1.10;;
77322;SDS011;66384;51.052;9.850;2023-03-14T04:38:03;1.50;;;0.90;;
77322;SDS011;66384;51.052;9.850;2023-03-14T04:40:32;2.50;;;1.10;;
77322;SDS011;66384;51.052;9.850;2023-03-14T04:45:31;2.60;;;1.00;;
77322;SDS011;66384;51.052;9.850;2023-03-14T04:48:00;1.40;;;0.80;;
77322;SDS011;66384;51.052;9.850;2023-03-14T04:50:30;1.90;;;1.10;;
77322;SDS011;66384;51.052;9.850;2023-03-14T04:52:59;2.80;;;1.00;;
77322;SDS011;66384;51.052;9.850;2023-03-14T04:55:28;1.60;;;0.80;;
77322;SDS011;66384;51.052;9.850;2023-03-14T04:57:58;2.30;;;0.90;;
77322;SDS011;66384;51.052;9.850;2023-03-14T05:00:28;1.50;;;0.90;;
77322;SDS011;66384;51.052;9.850;2023-03-14T05:02:57;2.80;;;1.20;;
77322;SDS011;66384;51.052;9.850;2023-03-14T05:05:26;3.40;;;1.20;;
77322;SDS011;66384;51.052;9.850;2023-03-14T05:07:56;2.10;;;1.00;;
77322;SDS011;66384;51.052;9.850;2023-03-14T05:10:25;1.90;;;1.00;;
77322;SDS011;66384;51.052;9.850;2023-03-14T05:12:54;2.30;;;1.00;;
77322;SDS011;66384;51.052;9.850;2023-03-14T05:15:24;3.90;;;1.40;;
77322;SDS011;66384;51.052;9.850;2023-03-14T05:17:53;4.90;;;1.60;;
77322;SDS011;66384;51.052;9.850;2023-03-14T05:20:22;5.10;;;1.60;;
77322;SDS011;66384;51.052;9.850;2023-03-14T05:22:52;1.40;;;0.90;;
77322;SDS011;66384;51.052;9.850;2023-03-14T05:25:21;1.90;;;0.90;;
77322;SDS011;66384;51.052;9.850;2023-03-14T05:27:50;4.00;;;1.40;;
77322;SDS011;66384;51.052;9.850;2023-03-14T05:30:22;3.10;;;1.20;;
77322;SDS011;66384;51.052;9.850;2023-03-14T05:32:52;4.00;;;1.30;;
77322;SDS011;66384;51.052;9.850;2023-03-14T05:35:21;1.50;;;1.00;;
77322;SDS011;66384;51.052;9.850;2023-03-14T05:37:50;1.30;;;0.90;;
77322;SDS011;66384;51.052;9.850;2023-03-14T05:40:19;3.00;;;1.20;;
77322;SDS011;66384;51.052;9.850;2023-03-14T05:42:49;2.60;;;1.40;;
77322;SDS011;66384;51.052;9.850;2023-03-14T05:45:18;2.50;;;1.40;;
77322;SDS011;66384;51.052;9.850;2023-03-14T05:47:47;1.20;;;1.00;;
77322;SDS011;66384;51.052;9.850;2023-03-14T05:50:17;2.50;;;1.50;;
77322;SDS011;66384;51.052;9.850;2023-03-14T05:52:46;3.00;;;1.50;;
77322;SDS011;66384;51.052;9.850;2023-03-14T05:55:15;2.00;;;1.10;;
77322;SDS011;66384;51.052;9.850;2023-03-14T05:57:45;2.50;;;1.20;;
77322;SDS011;66384;51.052;9.850;2023-03-14T06:00:15;3.30;;;1.20;;
77322;SDS011;66384;51.052;9.850;2023-03-14T06:02:45;3.40;;;1.30;;
77322;SDS011;66384;51.052;9.850;2023-03-14T06:05:14;2.00;;;1.10;;
77322;SDS011;66384;51.052;9.850;2023-03-14T06:07:44;3.10;;;1.10;;
77322;SDS011;66384;51.052;9.850;2023-03-14T06:10:13;1.70;;;1.10;;
77322;SDS011;66384;51.052;9.850;2023-03-14T06:12:43;3.60;;;1.20;;
77322;SDS011;66384;51.052;9.850;2023-03-14T06:15:12;1.70;;;1.10;;
77322;SDS011;66384;51.052;9.850;2023-03-14T06:17:41;4.90;;;1.20;;
77322;SDS011;66384;51.052;9.850;2023-03-14T06:20:11;3.00;;;1.60;;
77322;SDS011;66384;51.052;9.850;2023-03-14T06:22:41;1.60;;;1.00;;
77322;SDS011;66384;51.052;9.850;2023-03-14T06:25:10;1.30;;;1.10;;
77322;SDS011;66384;51.052;9.850;2023-03-14T06:27:39;3.00;;;1.20;;
77322;SDS011;66384;51.052;9.850;2023-03-14T06:30:11;1.80;;;1.00;;
77322;SDS011;66384;51.052;9.850;2023-03-14T06:32:40;2.50;;;1.20;;
77322;SDS011;66384;51.052;9.850;2023-03-14T06:35:10;1.20;;;0.90;;
77322;SDS011;66384;51.052;9.850;2023-03-14T06:37:39;2.40;;;1.30;;
77322;SDS011;66384;51.052;9.850;2023-03-14T06:40:09;2.10;;;1.00;;
77322;SDS011;66384;51.052;9.850;2023-03-14T06:42:43;2.10;;;1.10;;
77322;SDS011;66384;51.052;9.850;2023-03-14T06:45:12;1.50;;;1.10;;
77322;SDS011;66384;51.052;9.850;2023-03-14T06:47:43;5.40;;;1.20;;
77322;SDS011;66384;51.052;9.850;2023-03-14T06:50:12;2.00;;;1.00;;
77322;SDS011;66384;51.052;9.850;2023-03-14T06:52:41;2.10;;;0.90;;
77322;SDS011;66384;51.052;9.850;2023-03-14T06:55:14;1.80;;;1.00;;
77322;SDS011;66384;51.052;9.850;2023-03-14T06:57:43;2.20;;;1.00;;
77322;SDS011;66384;51.052;9.850;2023-03-14T07:00:14;3.10;;;1.10;;
77322;SDS011;66384;51.052;9.850;2023-03-14T07:02:44;2.30;;;1.00;;
77322;SDS011;66384;51.052;9.850;2023-03-14T07:05:13;3.10;;;1.10;;
77322;SDS011;66384;51.052;9.850;2023-03-14T07:07:42;2.00;;;1.10;;
77322;SDS011;66384;51.052;9.850;2023-03-14T07:10:12;3.90;;;1.10;;
77322;SDS011;66384;51.052;9.850;2023-03-14T07:12:41;1.70;;;1.10;;
77322;SDS011;66384;51.052;9.850;2023-03-14T07:15:11;1.90;;;1.10;;
77322;SDS011;66384;51.052;9.850;2023-03-14T07:17:40;0.90;;;0.90;;
77322;SDS011;66384;51.052;9.850;2023-03-14T07:20:10;1.00;;;0.80;;
77322;SDS011;66384;51.052;9.850;2023-03-14T07:22:40;2.40;;;1.30;;
77322;SDS011;66384;51.052;9.850;2023-03-14T07:25:10;3.10;;;1.30;;
77322;SDS011;66384;51.052;9.850;2023-03-14T07:27:39;3.40;;;1.20;;
77322;SDS011;66384;51.052;9.850;2023-03-14T07:32:39;2.70;;;1.10;;
77322;SDS011;66384;51.052;9.850;2023-03-14T07:35:09;1.10;;;0.60;;
77322;SDS011;66384;51.052;9.850;2023-03-14T07:37:38;2.10;;;1.00;;
77322;SDS011;66384;51.052;9.850;2023-03-14T07:40:08;1.20;;;1.00;;
77322;SDS011;66384;51.052;9.850;2023-03-14T07:42:41;1.30;;;1.00;;
77322;SDS011;66384;51.052;9.850;2023-03-14T07:45:10;1.50;;;0.60;;
77322;SDS011;66384;51.052;9.850;2023-03-14T07:47:40;2.20;;;0.80;;
77322;SDS011;66384;51.052;9.850;2023-03-14T07:50:10;1.20;;;0.80;;
77322;SDS011;66384;51.052;9.850;2023-03-14T07:52:39;1.70;;;0.90;;
77322;SDS011;66384;51.052;9.850;2023-03-14T07:55:09;1.20;;;0.80;;
77322;SDS011;66384;51.052;9.850;2023-03-14T08:00:08;0.50;;;0.40;;
77322;SDS011;66384;51.052;9.850;2023-03-14T08:02:40;0.40;;;0.40;;
77322;SDS011;66384;51.052;9.850;2023-03-14T08:05:10;0.50;;;0.50;;
77322;SDS011;66384;51.052;9.850;2023-03-14T08:07:39;1.40;;;0.80;;
77322;SDS011;66384;51.052;9.850;2023-03-14T08:10:09;0.80;;;0.70;;
77322;SDS011;66384;51.052;9.850;2023-03-14T08:12:42;1.20;;;0.60;;
77322;SDS011;66384;51.052;9.850;2023-03-14T08:15:11;1.30;;;0.90;;
77322;SDS011;66384;51.052;9.850;2023-03-14T08:17:40;0.50;;;0.50;;
77322;SDS011;66384;51.052;9.850;2023-03-14T08:20:11;1.70;;;0.90;;
77322;SDS011;66384;51.052;9.850;2023-03-14T08:22:40;0.70;;;0.50;;
77322;SDS011;66384;51.052;9.850;2023-03-14T08:25:10;0.70;;;0.50;;
77322;SDS011;66384;51.052;9.850;2023-03-14T08:27:39;3.10;;;0.90;;
77322;SDS011;66384;51.052;9.850;2023-03-14T08:30:13;0.90;;;0.80;;
77322;SDS011;66384;51.052;9.850;2023-03-14T08:32:44;0.90;;;0.60;;
77322;SDS011;66384;51.052;9.850;2023-03-14T08:35:14;1.00;;;0.60;;
77322;SDS011;66384;51.052;9.850;2023-03-14T08:37:43;0.40;;;0.30;;
77322;SDS011;66384;51.052;9.850;2023-03-14T08:40:13;1.00;;;0.70;;
77322;SDS011;66384;51.052;9.850;2023-03-14T08:42:44;1.00;;;0.30;;
77322;SDS011;66384;51.052;9.850;2023-03-14T08:45:14;1.40;;;0.60;;
77322;SDS011;66384;51.052;9.850;2023-03-14T08:47:44;1.10;;;0.50;;
77322;SDS011;66384;51.052;9.850;2023-03-14T08:50:13;0.60;;;0.60;;
77322;SDS011;66384;51.052;9.850;2023-03-14T08:52:43;0.80;;;0.70;;
77322;SDS011;66384;51.052;9.850;2023-03-14T08:55:12;1.20;;;0.40;;
77322;SDS011;66384;51.052;9.850;2023-03-14T08:57:41;0.40;;;0.40;;
77322;SDS011;66384;51.052;9.850;2023-03-14T09:00:11;2.40;;;0.70;;
77322;SDS011;66384;51.052;9.850;2023-03-14T09:02:42;1.60;;;0.60;;
77322;SDS011;66384;51.052;9.850;2023-03-14T09:05:11;1.80;;;0.60;;
77322;SDS011;66384;51.052;9.850;2023-03-14T09:07:41;2.20;;;0.70;;
77322;SDS011;66384;51.052;9.850;2023-03-14T09:10:11;1.10;;;0.50;;
77322;SDS011;66384;51.052;9.850;2023-03-14T09:12:40;0.80;;;0.70;;
77322;SDS011;66384;51.052;9.850;2023-03-14T09:15:10;0.90;;;0.70;;
77322;SDS011;66384;51.052;9.850;2023-03-14T09:17:40;1.20;;;0.90;;
77322;SDS011;66384;51.052;9.850;2023-03-14T09:20:12;0.90;;;0.80;;
77322;SDS011;66384;51.052;9.850;2023-03-14T09:22:41;1.20;;;0.60;;
77322;SDS011;66384;51.052;9.850;2023-03-14T09:25:11;1.60;;;0.70;;
77322;SDS011;66384;51.052;9.850;2023-03-14T09:27:40;1.00;;;0.70;;
77322;SDS011;66384;51.052;9.850;2023-03-14T09:30:10;1.80;;;0.60;;
77322;SDS011;66384;51.052;9.850;2023-03-14T09:32:40;1.80;;;0.90;;
77322;SDS011;66384;51.052;9.850;2023-03-14T09:35:10;1.20;;;1.00;;
77322;SDS011;66384;51.052;9.850;2023-03-14T09:37:39;1.10;;;0.60;;
77322;SDS011;66384;51.052;9.850;2023-03-14T09:40:11;1.10;;;0.60;;
77322;SDS011;66384;51.052;9.850;2023-03-14T09:42:43;1.60;;;1.10;;
77322;SDS011;66384;51.052;9.850;2023-03-14T09:45:23;1.70;;;0.90;;
77322;SDS011;66384;51.052;9.850;2023-03-14T09:47:56;1.20;;;0.80;;
77322;SDS011;66384;51.052;9.850;2023-03-14T09:50:30;0.80;;;0.70;;
77322;SDS011;66384;51.052;9.850;2023-03-14T09:53:04;0.80;;;0.80;;
77322;SDS011;66384;51.052;9.850;2023-03-14T09:55:40;1.20;;;0.90;;
77322;SDS011;66384;51.052;9.850;2023-03-14T09:58:13;2.30;;;1.10;;
77322;SDS011;66384;51.052;9.850;2023-03-14T10:00:44;1.30;;;0.90;;
77322;SDS011;66384;51.052;9.850;2023-03-14T10:06:01;0.60;;;0.60;;
77322;SDS011;66384;51.052;9.850;2023-03-14T10:08:37;0.70;;;0.60;;
77322;SDS011;66384;51.052;9.850;2023-03-14T10:11:10;0.60;;;0.60;;
77322;SDS011;66384;51.052;9.850;2023-03-14T10:14:01;1.00;;;0.90;;
77322;SDS011;66384;51.052;9.850;2023-03-14T10:16:33;1.20;;;0.80;;
77322;SDS011;66384;51.052;9.850;2023-03-14T10:19:05;0.60;;;0.50;;
77322;SDS011;66384;51.052;9.850;2023-03-14T10:21:38;0.70;;;0.70;;
77322;SDS011;66384;51.052;9.850;2023-03-14T10:24:10;0.80;;;0.80;;
77322;SDS011;66384;51.052;9.850;2023-03-14T10:26:49;2.40;;;0.70;;
77322;SDS011;66384;51.052;9.850;2023-03-14T10:29:19;1.40;;;1.00;;
77322;SDS011;66384;51.052;9.850;2023-03-14T10:31:50;0.90;;;0.60;;
77322;SDS011;66384;51.052;9.850;2023-03-14T10:34:24;1.70;;;0.70;;
77322;SDS011;66384;51.052;9.850;2023-03-14T10:36:55;0.80;;;0.50;;
77322;SDS011;66384;51.052;9.850;2023-03-14T10:39:36;0.60;;;0.50;;
77322;SDS011;66384;51.052;9.850;2023-03-14T10:42:14;1.00;;;0.70;;
77322;SDS011;66384;51.052;9.850;2023-03-14T10:44:48;1.40;;;0.60;;
77322;SDS011;66384;51.052;9.850;2023-03-14T10:47:23;1.50;;;0.90;;
77322;SDS011;66384;51.052;9.850;2023-03-14T10:49:54;1.00;;;0.80;;
77322;SDS011;66384;51.052;9.850;2023-03-14T10:52:25;0.60;;;0.60;;
77322;SDS011;66384;51.052;9.850;2023-03-14T10:54:56;1.00;;;0.90;;
77322;SDS011;66384;51.052;9.850;2023-03-14T10:57:27;0.50;;;0.50;;
77322;SDS011;66384;51.052;9.850;2023-03-14T10:59:56;1.20;;;0.80;;
77322;SDS011;66384;51.052;9.850;2023-03-14T11:02:42;0.60;;;0.60;;
77322;SDS011;66384;51.052;9.850;2023-03-14T11:05:23;1.20;;;0.50;;
77322;SDS011;66384;51.052;9.850;2023-03-14T11:08:00;1.00;;;0.70;;
77322;SDS011;66384;51.052;9.850;2023-03-14T11:10:35;1.80;;;1.00;;
77322;SDS011;66384;51.052;9.850;2023-03-14T11:13:14;1.00;;;0.80;;
77322;SDS011;66384;51.052;9.850;2023-03-14T11:15:53;2.30;;;1.00;;
77322;SDS011;66384;51.052;9.850;2023-03-14T11:18:41;1.10;;;0.70;;
77322;SDS011;66384;51.052;9.850;2023-03-14T11:21:20;2.20;;;1.50;;
77322;SDS011;66384;51.052;9.850;2023-03-14T11:23:56;4.70;;;0.70;;
77322;SDS011;66384;51.052;9.850;2023-03-14T11:26:37;0.70;;;0.70;;
77322;SDS011;66384;51.052;9.850;2023-03-14T11:29:12;1.30;;;1.20;;
77322;SDS011;66384;51.052;9.850;2023-03-14T11:31:53;0.90;;;0.70;;
77322;SDS011;66384;51.052;9.850;2023-03-14T11:34:27;1.30;;;0.80;;
77322;SDS011;66384;51.052;9.850;2023-03-14T11:37:05;1.70;;;0.90;;
77322;SDS011;66384;51.052;9.850;2023-03-14T11:39:43;0.70;;;0.60;;
77322;SDS011;66384;51.052;9.850;2023-03-14T11:42:19;1.60;;;0.80;;
77322;SDS011;66384;51.052;9.850;2023-03-14T11:44:50;1.50;;;0.70;;
77322;SDS011;66384;51.052;9.850;2023-03-14T11:47:21;1.00;;;0.90;;
77322;SDS011;66384;51.052;9.850;2023-03-14T11:49:53;1.30;;;0.90;;
77322;SDS011;66384;51.052;9.850;2023-03-14T11:52:30;1.20;;;1.00;;
77322;SDS011;66384;51.052;9.850;2023-03-14T11:55:04;2.30;;;0.90;;
77322;SDS011;66384;51.052;9.850;2023-03-14T12:00:13;0.80;;;0.80;;
77322;SDS011;66384;51.052;9.850;2023-03-14T12:02:48;0.90;;;0.80;;
77322;SDS011;66384;51.052;9.850;2023-03-14T12:05:30;0.70;;;0.60;;
77322;SDS011;66384;51.052;9.850;2023-03-14T12:08:25;1.60;;;1.00;;
77322;SDS011;66384;51.052;9.850;2023-03-14T12:11:01;0.70;;;0.60;;
77322;SDS011;66384;51.052;9.850;2023-03-14T12:13:36;1.30;;;1.10;;
77322;SDS011;66384;51.052;9.850;2023-03-14T12:16:10;0.80;;;0.80;;
77322;SDS011;66384;51.052;9.850;2023-03-14T12:18:53;1.30;;;0.80;;
77322;SDS011;66384;51.052;9.850;2023-03-14T12:21:23;1.40;;;0.70;;
77322;SDS011;66384;51.052;9.850;2023-03-14T12:24:16;1.50;;;0.70;;
77322;SDS011;66384;51.052;9.850;2023-03-14T12:26:52;0.60;;;0.50;;
77322;SDS011;66384;51.052;9.850;2023-03-14T12:29:23;0.30;;;0.30;;
77322;SDS011;66384;51.052;9.850;2023-03-14T12:34:40;1.10;;;0.50;;
77322;SDS011;66384;51.052;9.850;2023-03-14T12:37:14;0.70;;;0.70;;
77322;SDS011;66384;51.052;9.850;2023-03-14T12:42:58;0.60;;;0.50;;
77322;SDS011;66384;51.052;9.850;2023-03-14T12:45:30;0.50;;;0.50;;
77322;SDS011;66384;51.052;9.850;2023-03-14T12:48:09;0.80;;;0.70;;
77322;SDS011;66384;51.052;9.850;2023-03-14T12:50:43;1.50;;;1.10;;
77322;SDS011;66384;51.052;9.850;2023-03-14T12:56:03;11.00;;;3.30;;
77322;SDS011;66384;51.052;9.850;2023-03-14T12:58:37;19.50;;;6.60;;
77322;SDS011;66384;51.052;9.850;2023-03-14T13:01:16;3.30;;;1.60;;
77322;SDS011;66384;51.052;9.850;2023-03-14T13:03:47;2.70;;;1.10;;
77322;SDS011;66384;51.052;9.850;2023-03-14T13:12:17;1.20;;;0.90;;
77322;SDS011;66384;51.052;9.850;2023-03-14T13:14:51;3.40;;;2.00;;
77322;SDS011;66384;51.052;9.850;2023-03-14T13:17:22;3.30;;;2.10;;
77322;SDS011;66384;51.052;9.850;2023-03-14T13:19:55;3.70;;;2.10;;
77322;SDS011;66384;51.052;9.850;2023-03-14T13:22:28;4.10;;;2.30;;
77322;SDS011;66384;51.052;9.850;2023-03-14T13:25:00;5.10;;;2.90;;
77322;SDS011;66384;51.052;9.850;2023-03-14T13:27:33;4.20;;;2.30;;
77322;SDS011;66384;51.052;9.850;2023-03-14T13:30:11;4.30;;;2.40;;
77322;SDS011;66384;51.052;9.850;2023-03-14T13:32:48;5.90;;;2.80;;
77322;SDS011;66384;51.052;9.850;2023-03-14T13:35:20;3.30;;;2.20;;
77322;SDS011;66384;51.052;9.850;2023-03-14T13:37:57;5.20;;;2.30;;
77322;SDS011;66384;51.052;9.850;2023-03-14T13:40:30;6.70;;;3.70;;
77322;SDS011;66384;51.052;9.850;2023-03-14T13:43:02;5.60;;;2.80;;
77322;SDS011;66384;51.052;9.850;2023-03-14T13:48:34;12.10;;;5.10;;
77322;SDS011;66384;51.052;9.850;2023-03-14T13:53:43;4.90;;;2.00;;
77322;SDS011;66384;51.052;9.850;2023-03-14T13:56:13;7.10;;;3.20;;
77322;SDS011;66384;51.052;9.850;2023-03-14T13:58:43;5.50;;;2.60;;
77322;SDS011;66384;51.052;9.850;2023-03-14T14:01:14;6.00;;;2.30;;
77322;SDS011;66384;51.052;9.850;2023-03-14T14:03:46;7.40;;;3.70;;
77322;SDS011;66384;51.052;9.850;2023-03-14T14:06:19;7.30;;;4.10;;
77322;SDS011;66384;51.052;9.850;2023-03-14T14:08:54;5.00;;;2.50;;
77322;SDS011;66384;51.052;9.850;2023-03-14T14:11:27;7.30;;;3.50;;
77322;SDS011;66384;51.052;9.850;2023-03-14T14:14:04;2.30;;;1.60;;
77322;SDS011;66384;51.052;9.850;2023-03-14T14:16:38;3.50;;;1.70;;
77322;SDS011;66384;51.052;9.850;2023-03-14T14:19:08;1.80;;;0.90;;
77322;SDS011;66384;51.052;9.850;2023-03-14T14:21:38;2.10;;;1.10;;
77322;SDS011;66384;51.052;9.850;2023-03-14T14:24:08;4.20;;;2.10;;
77322;SDS011;66384;51.052;9.850;2023-03-14T14:26:41;2.80;;;1.80;;
77322;SDS011;66384;51.052;9.850;2023-03-14T14:29:23;10.90;;;5.80;;
77322;SDS011;66384;51.052;9.850;2023-03-14T14:32:02;6.50;;;3.30;;
77322;SDS011;66384;51.052;9.850;2023-03-14T14:34:42;5.90;;;2.70;;
77322;SDS011;66384;51.052;9.850;2023-03-14T14:37:19;4.30;;;2.50;;
77322;SDS011;66384;51.052;9.850;2023-03-14T14:39:50;4.70;;;2.50;;
77322;SDS011;66384;51.052;9.850;2023-03-14T14:42:21;7.60;;;3.70;;
77322;SDS011;66384;51.052;9.850;2023-03-14T14:44:57;4.10;;;2.90;;
77322;SDS011;66384;51.052;9.850;2023-03-14T14:47:27;7.50;;;4.40;;
77322;SDS011;66384;51.052;9.850;2023-03-14T14:49:59;6.60;;;2.90;;
77322;SDS011;66384;51.052;9.850;2023-03-14T14:52:33;6.80;;;4.00;;
77322;SDS011;66384;51.052;9.850;2023-03-14T14:55:12;6.90;;;3.70;;
77322;SDS011;66384;51.052;9.850;2023-03-14T14:57:49;9.20;;;4.10;;
77322;SDS011;66384;51.052;9.850;2023-03-14T15:00:21;3.40;;;2.20;;
77322;SDS011;66384;51.052;9.850;2023-03-14T15:02:52;6.90;;;4.80;;
77322;SDS011;66384;51.052;9.850;2023-03-14T15:05:26;3.90;;;2.70;;
77322;SDS011;66384;51.052;9.850;2023-03-14T15:07:57;3.20;;;2.00;;
77322;SDS011;66384;51.052;9.850;2023-03-14T15:10:26;3.50;;;2.00;;
77322;SDS011;66384;51.052;9.850;2023-03-14T15:12:55;3.80;;;1.80;;
77322;SDS011;66384;51.052;9.850;2023-03-14T15:15:24;4.10;;;2.90;;
77322;SDS011;66384;51.052;9.850;2023-03-14T15:17:54;3.60;;;1.70;;
77322;SDS011;66384;51.052;9.850;2023-03-14T15:20:23;5.00;;;2.20;;
77322;SDS011;66384;51.052;9.850;2023-03-14T15:22:53;2.90;;;2.00;;
77322;SDS011;66384;51.052;9.850;2023-03-14T15:25:22;2.60;;;2.20;;
77322;SDS011;66384;51.052;9.850;2023-03-14T15:27:52;2.10;;;1.10;;
77322;SDS011;66384;51.052;9.850;2023-03-14T15:30:21;6.00;;;2.80;;
77322;SDS011;66384;51.052;9.850;2023-03-14T15:32:51;3.10;;;1.70;;
77322;SDS011;66384;51.052;9.850;2023-03-14T15:35:20;5.20;;;2.70;;
77322;SDS011;66384;51.052;9.850;2023-03-14T15:37:49;7.80;;;4.80;;
77322;SDS011;66384;51.052;9.850;2023-03-14T15:42:49;3.10;;;2.20;;
77322;SDS011;66384;51.052;9.850;2023-03-14T15:45:18;3.70;;;2.40;;
77322;SDS011;66384;51.052;9.850;2023-03-14T15:47:48;4.80;;;2.20;;
77322;SDS011;66384;51.052;9.850;2023-03-14T15:50:17;3.70;;;1.80;;
77322;SDS011;66384;51.052;9.850;2023-03-14T15:52:46;4.10;;;1.60;;